sensor_id;sensor_type;location;lat;lon;timestamp;pressure;altitude;pressure_sealevel;temperature;humidity
70370;BME280;57790;51.356;-2.906;2023-01-23T00:00:53;103691.19;;;6.02;100.00
70370;BME280;57790;51.356;-2.906;2023-01-23T00:03:54;103683.25;;;6.04;100.00
70370;BME280;57790;51.356;-2.906;2023-01-23T00:06:55;103695.41;;;6.08;100.00
70370;BME280;57790;51.356;-2.906;2023-01-23T00:09:55;103695.44;;;6.06;100.00
70370;BME280;57790;51.356;-2.906;2023-01-23T00:12:55;103698.19;;;6.03;100.00
70370;BME280;57790;51.356;-2.906;2023-01-23T00:15:56;103706.09;;;6.03;100.00
70370;BME280;57790;51.356;-2.906;2023-01-23T00:18:57;103696.41;;;6.04;100.00
70370;BME280;57790;51.356;-2.906;2023-01-23T00:21:58;103701.63;;;6.05;100.00
70370;BME280;57790;51.356;-2.906;2023-01-23T00:25:00;103694.75;;;6.01;100.00
70370;BME280;57790;51.356;-2.906;2023-01-23T00:28:00;103706.16;;;6.02;100.00
70370;BME280;57790;51.356;-2.906;2023-01-23T00:31:21;103699.91;;;6.04;100.00
70370;BME280;57790;51.356;-2.906;2023-01-23T00:34:23;103694.56;;;6.06;100.00
70370;BME280;57790;51.356;-2.906;2023-01-23T00:37:24;103701.66;;;6.04;100.00
70370;BME280;57790;51.356;-2.906;2023-01-23T00:40:24;103707.91;;;6.01;100.00
70370;BME280;57790;51.356;-2.906;2023-01-23T00:43:25;103702.66;;;6.01;100.00
70370;BME280;57790;51.356;-2.906;2023-01-23T00:46:25;103707.84;;;6.03;100.00
70370;BME280;57790;51.356;-2.906;2023-01-23T00:49:25;103717.59;;;6.01;100.00
70370;BME280;57790;51.356;-2.906;2023-01-23T00:52:26;103723.72;;;6.01;100.00
70370;BME280;57790;51.356;-2.906;2023-01-23T00:55:26;103729.84;;;6.02;100.00
70370;BME280;57790;51.356;-2.906;2023-01-23T00:58:27;103724.69;;;5.99;100.00
70370;BME280;57790;51.356;-2.906;2023-01-23T01:01:27;103736.09;;;5.99;100.00
70370;BME280;57790;51.356;-2.906;2023-01-23T01:04:30;103736.09;;;5.99;100.00
70370;BME280;57790;51.356;-2.906;2023-01-23T01:07:30;103731.63;;;6.01;100.00
70370;BME280;57790;51.356;-2.906;2023-01-23T01:10:31;103721.88;;;6.03;100.00
70370;BME280;57790;51.356;-2.906;2023-01-23T01:13:33;103722.94;;;5.99;100.00
70370;BME280;57790;51.356;-2.906;2023-01-23T01:16:34;103726.41;;;6.00;100.00
70370;BME280;57790;51.356;-2.906;2023-01-23T01:19:35;103731.69;;;6.00;100.00
70370;BME280;57790;51.356;-2.906;2023-01-23T01:22:35;103730.94;;;5.96;100.00
70370;BME280;57790;51.356;-2.906;2023-01-23T01:25:36;103731.00;;;5.94;100.00
70370;BME280;57790;51.356;-2.906;2023-01-23T01:28:38;103731.00;;;5.94;100.00
70370;BME280;57790;51.356;-2.906;2023-01-23T01:31:39;103726.69;;;5.92;100.00
70370;BME280;57790;51.356;-2.906;2023-01-23T01:34:39;103731.94;;;5.93;100.00
70370;BME280;57790;51.356;-2.906;2023-01-23T01:37:40;103726.75;;;5.90;100.00
70370;BME280;57790;51.356;-2.906;2023-01-23T01:40:41;103738.94;;;5.93;100.00
70370;BME280;57790;51.356;-2.906;2023-01-23T01:43:42;103739.84;;;5.92;100.00
70370;BME280;57790;51.356;-2.906;2023-01-23T01:46:43;103752.00;;;5.96;100.00
70370;BME280;57790;51.356;-2.906;2023-01-23T01:49:44;103758.13;;;5.96;100.00
70370;BME280;57790;51.356;-2.906;2023-01-23T01:52:45;103744.91;;;5.98;100.00
70370;BME280;57790;51.356;-2.906;2023-01-23T01:55:45;103750.44;;;5.90;100.00
70370;BME280;57790;51.356;-2.906;2023-01-23T01:58:50;103734.81;;;5.86;100.00
70370;BME280;57790;51.356;-2.906;2023-01-23T02:02:00;103733.94;;;5.85;100.00
70370;BME280;57790;51.356;-2.906;2023-01-23T02:05:08;103728.81;;;5.82;100.00
70370;BME280;57790;51.356;-2.906;2023-01-23T02:08:22;103728.88;;;5.81;100.00
70370;BME280;57790;51.356;-2.906;2023-01-23T02:11:25;103728.06;;;5.79;100.00
70370;BME280;57790;51.356;-2.906;2023-01-23T02:14:26;103721.97;;;5.77;100.00
70370;BME280;57790;51.356;-2.906;2023-01-23T02:17:28;103729.19;;;5.72;100.00
70370;BME280;57790;51.356;-2.906;2023-01-23T02:20:29;103724.91;;;5.69;100.00
70370;BME280;57790;51.356;-2.906;2023-01-23T02:26:37;103727.66;;;5.66;100.00
70370;BME280;57790;51.356;-2.906;2023-01-23T02:29:44;103729.44;;;5.65;100.00
70370;BME280;57790;51.356;-2.906;2023-01-23T02:32:47;103736.50;;;5.63;100.00
70370;BME280;57790;51.356;-2.906;2023-01-23T02:35:50;103737.53;;;5.59;100.00
70370;BME280;57790;51.356;-2.906;2023-01-23T02:39:12;103741.09;;;5.58;100.00
70370;BME280;57790;51.356;-2.906;2023-01-23T02:42:14;103741.03;;;5.60;100.00
70370;BME280;57790;51.356;-2.906;2023-01-23T02:45:14;103744.63;;;5.57;100.00
70370;BME280;57790;51.356;-2.906;2023-01-23T02:48:14;103746.34;;;5.58;100.00
70370;BME280;57790;51.356;-2.906;2023-01-23T02:51:15;103743.03;;;5.53;100.00
70370;BME280;57790;51.356;-2.906;2023-01-23T02:54:16;103745.78;;;5.50;100.00
70370;BME280;57790;51.356;-2.906;2023-01-23T02:57:17;103741.53;;;5.46;100.00
70370;BME280;57790;51.356;-2.906;2023-01-23T03:00:18;103743.28;;;5.46;100.00
70370;BME280;57790;51.356;-2.906;2023-01-23T03:03:19;103729.41;;;5.42;100.00
70370;BME280;57790;51.356;-2.906;2023-01-23T03:06:19;103728.59;;;5.40;100.00
70370;BME280;57790;51.356;-2.906;2023-01-23T03:09:20;103726.94;;;5.37;100.00
70370;BME280;57790;51.356;-2.906;2023-01-23T03:12:21;103739.25;;;5.37;100.00
70370;BME280;57790;51.356;-2.906;2023-01-23T03:15:22;103732.94;;;5.41;100.00
70370;BME280;57790;51.356;-2.906;2023-01-23T03:18:24;103726.09;;;5.37;100.00
70370;BME280;57790;51.356;-2.906;2023-01-23T03:21:26;103727.00;;;5.36;100.00
70370;BME280;57790;51.356;-2.906;2023-01-23T03:24:27;103720.06;;;5.33;100.00
70370;BME280;57790;51.356;-2.906;2023-01-23T03:27:27;103725.25;;;5.35;100.00
70370;BME280;57790;51.356;-2.906;2023-01-23T03:30:28;103733.06;;;5.38;100.00
70370;BME280;57790;51.356;-2.906;2023-01-23T03:33:28;103737.56;;;5.34;100.00
70370;BME280;57790;51.356;-2.906;2023-01-23T03:36:29;103748.00;;;5.37;100.00
70370;BME280;57790;51.356;-2.906;2023-01-23T03:39:29;103742.72;;;5.37;100.00
70370;BME280;57790;51.356;-2.906;2023-01-23T03:42:48;103748.94;;;5.35;100.00
70370;BME280;57790;51.356;-2.906;2023-01-23T03:45:48;103744.81;;;5.28;100.00
70370;BME280;57790;51.356;-2.906;2023-01-23T03:48:49;103750.94;;;5.28;100.00
70370;BME280;57790;51.356;-2.906;2023-01-23T03:51:49;103764.94;;;5.29;100.00
70370;BME280;57790;51.356;-2.906;2023-01-23T03:54:50;103762.13;;;5.33;100.00
70370;BME280;57790;51.356;-2.906;2023-01-23T03:57:50;103760.28;;;5.37;100.00
70370;BME280;57790;51.356;-2.906;2023-01-23T04:00:51;103755.94;;;5.36;100.00
70370;BME280;57790;51.356;-2.906;2023-01-23T04:03:51;103753.50;;;5.30;100.00
70370;BME280;57790;51.356;-2.906;2023-01-23T04:06:52;103751.69;;;5.32;100.00
70370;BME280;57790;51.356;-2.906;2023-01-23T04:09:52;103743.03;;;5.28;100.00
70370;BME280;57790;51.356;-2.906;2023-01-23T04:12:52;103744.94;;;5.25;100.00
70370;BME280;57790;51.356;-2.906;2023-01-23T04:15:53;103742.97;;;5.30;100.00
70370;BME280;57790;51.356;-2.906;2023-01-23T04:18:53;103734.28;;;5.28;100.00
70370;BME280;57790;51.356;-2.906;2023-01-23T04:21:53;103743.03;;;5.28;100.00
70370;BME280;57790;51.356;-2.906;2023-01-23T04:24:54;103744.88;;;5.26;100.00
70370;BME280;57790;51.356;-2.906;2023-01-23T04:27:54;103753.78;;;5.22;100.00
70370;BME280;57790;51.356;-2.906;2023-01-23T04:30:54;103751.09;;;5.24;100.00
70370;BME280;57790;51.356;-2.906;2023-01-23T04:33:55;103756.47;;;5.21;100.00
70370;BME280;57790;51.356;-2.906;2023-01-23T04:36:55;103755.69;;;5.17;100.00
70370;BME280;57790;51.356;-2.906;2023-01-23T04:39:56;103747.75;;;5.19;100.00
70370;BME280;57790;51.356;-2.906;2023-01-23T04:42:56;103747.75;;;5.19;100.00
70370;BME280;57790;51.356;-2.906;2023-01-23T04:45:56;103745.94;;;5.21;100.00
70370;BME280;57790;51.356;-2.906;2023-01-23T04:48:57;103746.16;;;5.15;100.00
70370;BME280;57790;51.356;-2.906;2023-01-23T04:51:57;103744.66;;;5.07;100.00
70370;BME280;57790;51.356;-2.906;2023-01-23T04:54:57;103748.03;;;5.11;100.00
70370;BME280;57790;51.356;-2.906;2023-01-23T04:57:58;103745.66;;;5.03;100.00
70370;BME280;57790;51.356;-2.906;2023-01-23T05:01:04;103755.91;;;5.11;100.00
70370;BME280;57790;51.356;-2.906;2023-01-23T05:04:04;103751.72;;;5.05;100.00
70370;BME280;57790;51.356;-2.906;2023-01-23T05:07:05;103754.25;;;5.08;100.00
70370;BME280;57790;51.356;-2.906;2023-01-23T05:10:06;103755.91;;;5.11;100.00
70370;BME280;57790;51.356;-2.906;2023-01-23T05:13:06;103750.66;;;5.11;100.00
70370;BME280;57790;51.356;-2.906;2023-01-23T05:16:09;103751.53;;;5.12;100.00
70370;BME280;57790;51.356;-2.906;2023-01-23T05:19:09;103754.31;;;5.07;100.00
70370;BME280;57790;51.356;-2.906;2023-01-23T05:22:10;103755.25;;;5.04;100.00
70370;BME280;57790;51.356;-2.906;2023-01-23T05:25:10;103765.78;;;5.04;100.00
70370;BME280;57790;51.356;-2.906;2023-01-23T05:28:11;103759.00;;;4.97;100.00
70370;BME280;57790;51.356;-2.906;2023-01-23T05:31:12;103752.69;;;5.03;100.00
70370;BME280;57790;51.356;-2.906;2023-01-23T05:34:12;103762.28;;;5.04;100.00
70370;BME280;57790;51.356;-2.906;2023-01-23T05:37:13;103770.16;;;5.04;100.00
70370;BME280;57790;51.356;-2.906;2023-01-23T05:40:13;103779.13;;;4.98;100.00
70370;BME280;57790;51.356;-2.906;2023-01-23T05:43:14;103786.16;;;4.98;100.00
70370;BME280;57790;51.356;-2.906;2023-01-23T05:46:15;103784.44;;;4.97;100.00
70370;BME280;57790;51.356;-2.906;2023-01-23T05:49:16;103788.84;;;4.96;100.00
70370;BME280;57790;51.356;-2.906;2023-01-23T05:52:16;103790.63;;;4.96;100.00
70370;BME280;57790;51.356;-2.906;2023-01-23T05:55:16;103790.72;;;4.93;100.00
70370;BME280;57790;51.356;-2.906;2023-01-23T05:58:17;103788.94;;;4.93;100.00
70370;BME280;57790;51.356;-2.906;2023-01-23T06:01:18;103786.34;;;4.92;100.00
70370;BME280;57790;51.356;-2.906;2023-01-23T06:04:18;103782.00;;;4.91;100.00
70370;BME280;57790;51.356;-2.906;2023-01-23T06:07:19;103787.41;;;4.86;100.00
70370;BME280;57790;51.356;-2.906;2023-01-23T06:10:21;103788.31;;;4.85;100.00
70370;BME280;57790;51.356;-2.906;2023-01-23T06:13:21;103789.25;;;4.84;100.00
70370;BME280;57790;51.356;-2.906;2023-01-23T06:16:21;103785.69;;;4.85;100.00
70370;BME280;57790;51.356;-2.906;2023-01-23T06:19:22;103783.88;;;4.87;100.00
70370;BME280;57790;51.356;-2.906;2023-01-23T06:22:22;103781.34;;;4.84;100.00
70370;BME280;57790;51.356;-2.906;2023-01-23T06:25:22;103783.97;;;4.84;100.00
70370;BME280;57790;51.356;-2.906;2023-01-23T06:28:23;103789.25;;;4.84;100.00
70370;BME280;57790;51.356;-2.906;2023-01-23T06:31:23;103786.66;;;4.83;100.00
70370;BME280;57790;51.356;-2.906;2023-01-23T06:34:23;103793.63;;;4.84;100.00
70370;BME280;57790;51.356;-2.906;2023-01-23T06:37:24;103789.28;;;4.83;100.00
70370;BME280;57790;51.356;-2.906;2023-01-23T06:40:24;103788.38;;;4.84;100.00
70370;BME280;57790;51.356;-2.906;2023-01-23T06:43:25;103793.53;;;4.87;100.00
70370;BME280;57790;51.356;-2.906;2023-01-23T06:46:25;103790.91;;;4.87;100.00
70370;BME280;57790;51.356;-2.906;2023-01-23T06:49:26;103789.94;;;4.89;100.00
70370;BME280;57790;51.356;-2.906;2023-01-23T06:52:27;103793.38;;;4.91;100.00
70370;BME280;57790;51.356;-2.906;2023-01-23T06:55:28;103796.84;;;4.92;100.00
70370;BME280;57790;51.356;-2.906;2023-01-23T06:58:28;103802.09;;;4.93;100.00
70370;BME280;57790;51.356;-2.906;2023-01-23T07:01:28;103802.91;;;4.95;100.00
70370;BME280;57790;51.356;-2.906;2023-01-23T07:04:29;103802.84;;;4.97;100.00
70370;BME280;57790;51.356;-2.906;2023-01-23T07:07:29;103813.41;;;4.95;100.00
70370;BME280;57790;51.356;-2.906;2023-01-23T07:10:29;103817.59;;;5.01;100.00
70370;BME280;57790;51.356;-2.906;2023-01-23T07:13:31;103819.47;;;4.97;100.00
70370;BME280;57790;51.356;-2.906;2023-01-23T07:16:32;103831.81;;;4.95;100.00
70370;BME280;57790;51.356;-2.906;2023-01-23T07:19:34;103826.66;;;4.92;100.00
70370;BME280;57790;51.356;-2.906;2023-01-23T07:22:34;103837.06;;;4.95;100.00
70370;BME280;57790;51.356;-2.906;2023-01-23T07:25:35;103845.75;;;4.97;100.00
70370;BME280;57790;51.356;-2.906;2023-01-23T07:28:36;103847.44;;;5.00;100.00
70370;BME280;57790;51.356;-2.906;2023-01-23T07:31:37;103860.72;;;4.95;100.00
70370;BME280;57790;51.356;-2.906;2023-01-23T07:34:37;103859.75;;;4.98;100.00
70370;BME280;57790;51.356;-2.906;2023-01-23T07:37:38;103856.28;;;4.97;100.00
70370;BME280;57790;51.356;-2.906;2023-01-23T07:40:38;103863.34;;;4.95;100.00
70370;BME280;57790;51.356;-2.906;2023-01-23T07:43:41;103862.34;;;4.99;100.00
70370;BME280;57790;51.356;-2.906;2023-01-23T07:46:42;103861.38;;;5.02;100.00
70370;BME280;57790;51.356;-2.906;2023-01-23T07:49:43;103857.84;;;5.03;100.00
70370;BME280;57790;51.356;-2.906;2023-01-23T07:52:43;103868.31;;;5.04;100.00
70370;BME280;57790;51.356;-2.906;2023-01-23T07:55:43;103868.34;;;5.03;100.00
70370;BME280;57790;51.356;-2.906;2023-01-23T07:58:48;103874.63;;;4.99;100.00
70370;BME280;57790;51.356;-2.906;2023-01-23T08:01:48;103868.41;;;5.01;100.00
70370;BME280;57790;51.356;-2.906;2023-01-23T08:04:51;103862.34;;;4.99;100.00
70370;BME280;57790;51.356;-2.906;2023-01-23T08:07:52;103871.91;;;5.02;100.00
70370;BME280;57790;51.356;-2.906;2023-01-23T08:10:52;103869.38;;;4.99;100.00
70370;BME280;57790;51.356;-2.906;2023-01-23T08:13:52;103868.50;;;4.98;100.00
70370;BME280;57790;51.356;-2.906;2023-01-23T08:16:53;103876.34;;;5.00;100.00
70370;BME280;57790;51.356;-2.906;2023-01-23T08:19:53;103878.22;;;4.96;100.00
70370;BME280;57790;51.356;-2.906;2023-01-23T08:22:54;103886.00;;;4.99;100.00
70370;BME280;57790;51.356;-2.906;2023-01-23T08:25:57;103883.47;;;4.96;100.00
70370;BME280;57790;51.356;-2.906;2023-01-23T08:28:59;103885.94;;;5.01;100.00
70370;BME280;57790;51.356;-2.906;2023-01-23T08:31:59;103892.16;;;4.98;100.00
70370;BME280;57790;51.356;-2.906;2023-01-23T08:34:59;103885.94;;;5.01;100.00
70370;BME280;57790;51.356;-2.906;2023-01-23T08:38:00;103893.88;;;4.99;100.00
70370;BME280;57790;51.356;-2.906;2023-01-23T08:41:02;103897.38;;;5.00;100.00
70370;BME280;57790;51.356;-2.906;2023-01-23T08:44:02;103904.50;;;4.96;100.00
70370;BME280;57790;51.356;-2.906;2023-01-23T08:47:03;103904.34;;;5.01;100.00
70370;BME280;57790;51.356;-2.906;2023-01-23T08:50:04;103903.53;;;4.99;100.00
70370;BME280;57790;51.356;-2.906;2023-01-23T08:53:05;103911.38;;;5.00;100.00
70370;BME280;57790;51.356;-2.906;2023-01-23T08:56:15;103907.03;;;4.99;100.00
70370;BME280;57790;51.356;-2.906;2023-01-23T08:59:16;103904.50;;;4.96;100.00
70370;BME280;57790;51.356;-2.906;2023-01-23T09:02:16;103910.69;;;4.95;100.00
70370;BME280;57790;51.356;-2.906;2023-01-23T09:05:16;103910.63;;;4.97;100.00
70370;BME280;57790;51.356;-2.906;2023-01-23T09:08:17;103913.19;;;4.98;100.00
70370;BME280;57790;51.356;-2.906;2023-01-23T09:11:18;103924.63;;;4.97;100.00
70370;BME280;57790;51.356;-2.906;2023-01-23T09:14:18;103918.66;;;4.92;100.00
70370;BME280;57790;51.356;-2.906;2023-01-23T09:17:19;103912.50;;;4.92;100.00
70370;BME280;57790;51.356;-2.906;2023-01-23T09:20:19;103913.31;;;4.95;100.00
70370;BME280;57790;51.356;-2.906;2023-01-23T09:23:20;103915.88;;;4.97;100.00
70370;BME280;57790;51.356;-2.906;2023-01-23T09:26:21;103907.03;;;4.99;100.00
70370;BME280;57790;51.356;-2.906;2023-01-23T09:29:21;103911.38;;;5.00;100.00
70370;BME280;57790;51.356;-2.906;2023-01-23T09:32:21;103918.31;;;5.03;100.00
70370;BME280;57790;51.356;-2.906;2023-01-23T09:35:22;103915.56;;;5.06;100.00
70370;BME280;57790;51.356;-2.906;2023-01-23T09:38:22;103912.78;;;5.12;100.00
70370;BME280;57790;51.356;-2.906;2023-01-23T09:41:26;103913.72;;;5.10;100.00
70370;BME280;57790;51.356;-2.906;2023-01-23T09:44:49;103918.09;;;5.11;100.00
70370;BME280;57790;51.356;-2.906;2023-01-23T09:47:58;103914.44;;;5.15;100.00
70370;BME280;57790;51.356;-2.906;2023-01-23T09:51:09;103919.53;;;5.21;100.00
70370;BME280;57790;51.356;-2.906;2023-01-23T09:57:35;103922.84;;;5.26;100.00
70370;BME280;57790;51.356;-2.906;2023-01-23T10:00:37;103913.78;;;5.34;100.00
70370;BME280;57790;51.356;-2.906;2023-01-23T10:03:38;103926.00;;;5.37;100.00
70370;BME280;57790;51.356;-2.906;2023-01-23T10:10:19;103919.88;;;5.36;100.00
70370;BME280;57790;51.356;-2.906;2023-01-23T10:17:04;103934.81;;;5.36;100.00
70370;BME280;57790;51.356;-2.906;2023-01-23T10:26:38;103945.94;;;5.44;100.00
70370;BME280;57790;51.356;-2.906;2023-01-23T10:29:44;103955.53;;;5.45;100.00
70370;BME280;57790;51.356;-2.906;2023-01-23T10:33:23;103962.56;;;5.45;100.00
70370;BME280;57790;51.356;-2.906;2023-01-23T10:36:31;103966.22;;;5.41;100.00
70370;BME280;57790;51.356;-2.906;2023-01-23T10:39:48;103975.63;;;5.48;100.00
70370;BME280;57790;51.356;-2.906;2023-01-23T10:42:50;103982.72;;;5.46;100.00
70370;BME280;57790;51.356;-2.906;2023-01-23T10:45:50;103988.72;;;5.49;100.00
70370;BME280;57790;51.356;-2.906;2023-01-23T10:48:52;103992.25;;;5.48;100.00
70370;BME280;57790;51.356;-2.906;2023-01-23T10:51:53;103985.50;;;5.41;100.00
70370;BME280;57790;51.356;-2.906;2023-01-23T10:54:53;103987.91;;;5.47;100.00
70370;BME280;57790;51.356;-2.906;2023-01-23T10:57:58;103982.59;;;5.50;100.00
70370;BME280;57790;51.356;-2.906;2023-01-23T11:01:02;103974.69;;;5.50;100.00
70370;BME280;57790;51.356;-2.906;2023-01-23T11:04:16;103976.41;;;5.51;100.00
70370;BME280;57790;51.356;-2.906;2023-01-23T11:07:25;103968.63;;;5.47;100.00
70370;BME280;57790;51.356;-2.906;2023-01-23T11:10:26;103967.44;;;5.57;100.00
70370;BME280;57790;51.356;-2.906;2023-01-23T11:13:29;103961.31;;;5.56;100.00
70370;BME280;57790;51.356;-2.906;2023-01-23T11:16:29;103962.94;;;5.60;100.00
70370;BME280;57790;51.356;-2.906;2023-01-23T11:19:31;103959.31;;;5.63;100.00
70370;BME280;57790;51.356;-2.906;2023-01-23T11:22:35;103963.66;;;5.65;100.00
70370;BME280;57790;51.356;-2.906;2023-01-23T11:25:39;103967.22;;;5.64;100.00
70370;BME280;57790;51.356;-2.906;2023-01-23T11:28:48;103970.78;;;5.62;100.00
70370;BME280;57790;51.356;-2.906;2023-01-23T11:31:52;103956.69;;;5.63;100.00
70370;BME280;57790;51.356;-2.906;2023-01-23T11:35:09;103952.09;;;5.70;100.00
70370;BME280;57790;51.356;-2.906;2023-01-23T11:38:13;103951.84;;;5.77;100.00
70370;BME280;57790;51.356;-2.906;2023-01-23T11:41:15;103949.44;;;5.71;100.00
70370;BME280;57790;51.356;-2.906;2023-01-23T11:44:22;103944.16;;;5.71;100.00
70370;BME280;57790;51.356;-2.906;2023-01-23T11:50:36;103950.13;;;6.03;100.00
70370;BME280;57790;51.356;-2.906;2023-01-23T11:54:07;103937.69;;;6.06;100.00
70370;BME280;57790;51.356;-2.906;2023-01-23T11:57:18;103940.06;;;6.14;100.00
70370;BME280;57790;51.356;-2.906;2023-01-23T12:09:45;103917.84;;;6.22;100.00
70370;BME280;57790;51.356;-2.906;2023-01-23T12:13:04;103910.50;;;6.31;100.00
70370;BME280;57790;51.356;-2.906;2023-01-23T12:16:52;103910.56;;;6.29;100.00
70370;BME280;57790;51.356;-2.906;2023-01-23T12:19:52;103907.22;;;6.24;100.00
70370;BME280;57790;51.356;-2.906;2023-01-23T12:23:39;103907.19;;;6.25;100.00
70370;BME280;57790;51.356;-2.906;2023-01-23T12:26:59;103921.09;;;6.29;100.00
70370;BME280;57790;51.356;-2.906;2023-01-23T12:33:12;103913.91;;;6.33;100.00
70370;BME280;57790;51.356;-2.906;2023-01-23T12:46:15;103881.97;;;6.42;100.00
70370;BME280;57790;51.356;-2.906;2023-01-23T12:49:29;103875.72;;;6.44;100.00
70370;BME280;57790;51.356;-2.906;2023-01-23T12:52:40;103885.41;;;6.44;100.00
70370;BME280;57790;51.356;-2.906;2023-01-23T12:59:03;103877.16;;;6.53;100.00
70370;BME280;57790;51.356;-2.906;2023-01-23T13:02:18;103878.56;;;6.62;100.00
70370;BME280;57790;51.356;-2.906;2023-01-23T13:05:29;103872.22;;;6.67;100.00
70370;BME280;57790;51.356;-2.906;2023-01-23T13:11:57;103868.34;;;6.76;100.00
70370;BME280;57790;51.356;-2.906;2023-01-23T13:18:22;103850.34;;;6.87;100.00
70370;BME280;57790;51.356;-2.906;2023-01-23T13:21:24;103847.44;;;6.93;100.00
70370;BME280;57790;51.356;-2.906;2023-01-23T13:24:47;103841.06;;;6.99;100.00
70370;BME280;57790;51.356;-2.906;2023-01-23T13:32:16;103843.66;;;7.21;100.00
70370;BME280;57790;51.356;-2.906;2023-01-23T13:39:02;103862.59;;;7.10;100.00
70370;BME280;57790;51.356;-2.906;2023-01-23T13:48:42;103857.94;;;7.37;100.00
70370;BME280;57790;51.356;-2.906;2023-01-23T13:51:58;103867.84;;;7.32;100.00
70370;BME280;57790;51.356;-2.906;2023-01-23T13:55:03;103862.97;;;7.43;100.00
70370;BME280;57790;51.356;-2.906;2023-01-23T13:58:32;103856.13;;;7.59;100.00
70370;BME280;57790;51.356;-2.906;2023-01-23T14:01:44;103861.84;;;7.49;100.00
70370;BME280;57790;51.356;-2.906;2023-01-23T14:05:19;103854.34;;;7.60;100.00
70370;BME280;57790;51.356;-2.906;2023-01-23T14:08:22;103864.50;;;7.49;100.00
70370;BME280;57790;51.356;-2.906;2023-01-23T14:11:23;103870.69;;;7.47;100.00
70370;BME280;57790;51.356;-2.906;2023-01-23T14:14:23;103875.19;;;7.45;100.00
70370;BME280;57790;51.356;-2.906;2023-01-23T14:17:42;103874.31;;;7.45;100.00
70370;BME280;57790;51.356;-2.906;2023-01-23T14:20:44;103874.19;;;7.48;100.00
70370;BME280;57790;51.356;-2.906;2023-01-23T14:23:49;103878.38;;;7.54;100.00
70370;BME280;57790;51.356;-2.906;2023-01-23T14:26:52;103875.84;;;7.51;100.00
70370;BME280;57790;51.356;-2.906;2023-01-23T14:30:14;103877.53;;;7.52;100.00
70370;BME280;57790;51.356;-2.906;2023-01-23T14:33:16;103873.03;;;7.55;100.00
70370;BME280;57790;51.356;-2.906;2023-01-23T14:36:18;103884.22;;;7.60;100.00
70370;BME280;57790;51.356;-2.906;2023-01-23T14:39:25;103888.38;;;7.66;100.00
70370;BME280;57790;51.356;-2.906;2023-01-23T14:42:30;103889.25;;;7.66;100.00
70370;BME280;57790;51.356;-2.906;2023-01-23T14:45:31;103883.16;;;7.64;100.00
70370;BME280;57790;51.356;-2.906;2023-01-23T14:48:36;103873.47;;;7.65;100.00
70370;BME280;57790;51.356;-2.906;2023-01-23T14:51:37;103872.50;;;7.67;100.00
70370;BME280;57790;51.356;-2.906;2023-01-23T14:54:42;103874.94;;;7.72;100.00
70370;BME280;57790;51.356;-2.906;2023-01-23T14:57:43;103879.22;;;7.74;100.00
70370;BME280;57790;51.356;-2.906;2023-01-23T15:00:44;103872.09;;;7.76;100.00
70370;BME280;57790;51.356;-2.906;2023-01-23T15:03:55;103888.53;;;7.83;100.00
70370;BME280;57790;51.356;-2.906;2023-01-23T15:06:58;103886.75;;;7.84;100.00
70370;BME280;57790;51.356;-2.906;2023-01-23T15:09:59;103882.25;;;7.86;100.00
70370;BME280;57790;51.356;-2.906;2023-01-23T15:13:02;103880.34;;;7.89;100.00
70370;BME280;57790;51.356;-2.906;2023-01-23T15:16:05;103884.63;;;7.92;100.00
70370;BME280;57790;51.356;-2.906;2023-01-23T15:19:21;103884.69;;;7.90;100.00
70370;BME280;57790;51.356;-2.906;2023-01-23T15:22:27;103889.50;;;8.01;100.00
70370;BME280;57790;51.356;-2.906;2023-01-23T15:25:31;103880.66;;;8.02;100.00
70370;BME280;57790;51.356;-2.906;2023-01-23T15:31:49;103883.16;;;8.05;100.00
70370;BME280;57790;51.356;-2.906;2023-01-23T15:34:52;103886.59;;;8.07;100.00
70370;BME280;57790;51.356;-2.906;2023-01-23T15:37:54;103890.06;;;8.07;100.00
70370;BME280;57790;51.356;-2.906;2023-01-23T15:40:59;103888.19;;;8.11;100.00
70370;BME280;57790;51.356;-2.906;2023-01-23T15:43:59;103881.13;;;8.12;100.00
70370;BME280;57790;51.356;-2.906;2023-01-23T15:46:59;103881.75;;;8.17;100.00
70370;BME280;57790;51.356;-2.906;2023-01-23T15:50:00;103885.31;;;8.16;100.00
70370;BME280;57790;51.356;-2.906;2023-01-23T15:53:00;103880.91;;;8.16;100.00
70370;BME280;57790;51.356;-2.906;2023-01-23T15:56:01;103888.91;;;8.15;100.00
70370;BME280;57790;51.356;-2.906;2023-01-23T15:59:02;103894.91;;;8.18;100.00
70370;BME280;57790;51.356;-2.906;2023-01-23T16:02:06;103897.59;;;8.17;100.00
70370;BME280;57790;51.356;-2.906;2023-01-23T16:05:07;103905.59;;;8.15;100.00
70370;BME280;57790;51.356;-2.906;2023-01-23T16:08:19;103908.25;;;8.15;100.00
70370;BME280;57790;51.356;-2.906;2023-01-23T16:11:20;103909.19;;;8.14;100.00
70370;BME280;57790;51.356;-2.906;2023-01-23T16:14:20;103901.25;;;8.14;100.00
70370;BME280;57790;51.356;-2.906;2023-01-23T16:17:21;103903.03;;;8.14;100.00
70370;BME280;57790;51.356;-2.906;2023-01-23T16:20:26;103910.88;;;8.15;100.00
70370;BME280;57790;51.356;-2.906;2023-01-23T16:23:27;103912.75;;;8.13;100.00
70370;BME280;57790;51.356;-2.906;2023-01-23T16:26:27;103919.59;;;8.17;100.00
70370;BME280;57790;51.356;-2.906;2023-01-23T16:29:31;103919.59;;;8.17;100.00
70370;BME280;57790;51.356;-2.906;2023-01-23T16:32:31;103916.97;;;8.17;100.00
70370;BME280;57790;51.356;-2.906;2023-01-23T16:35:32;103916.75;;;8.22;100.00
70370;BME280;57790;51.356;-2.906;2023-01-23T16:38:32;103918.47;;;8.23;100.00
70370;BME280;57790;51.356;-2.906;2023-01-23T16:41:33;103919.47;;;8.20;100.00
70370;BME280;57790;51.356;-2.906;2023-01-23T16:44:33;103921.63;;;8.31;100.00
70370;BME280;57790;51.356;-2.906;2023-01-23T16:47:33;103927.59;;;8.36;100.00
70370;BME280;57790;51.356;-2.906;2023-01-23T16:50:36;103924.16;;;8.34;100.00
70370;BME280;57790;51.356;-2.906;2023-01-23T16:53:41;103923.25;;;8.35;100.00
70370;BME280;57790;51.356;-2.906;2023-01-23T16:56:43;103930.97;;;8.40;100.00
70370;BME280;57790;51.356;-2.906;2023-01-23T16:59:45;103933.63;;;8.40;100.00